Versailles, Illinois
Current Conditions -  °F | °C
As of 1:15 AM on Sunday 26 Oct 2014 (Local Time) from KPPQ Reporting Station
Clear Clear  
Wind Chill: 58°   Ceiling: Unl
Heat Index: 58°   Visibility: 10mi
Dew Point: 40°   Wind: 5mph
Humidity: 50%   Direction: 20°NNE
Pressure: 30.05"   Gusts: NA
Location:  39.89°N, 90.66°W
Report Text: KPPQ 260615Z AUTO 02004KT 10SM CLR 15/04 A3005 RMK AO2 T01460044
Loading
Personal Weather Stations






























Interactive Weather Map
Tropical Storm Tracking
New forecast layout! Learn more

10-Day Weather Forecast

Advertisements
Track Severe Weather on mobile